sensor_id;sensor_type;location;lat;lon;timestamp;pressure;altitude;pressure_sealevel;temperature;humidity
11053;BME280;55230;42.602;23.470;2022-12-20T00:01:55;94489.69;;;-6.80;93.71
11053;BME280;55230;42.602;23.470;2022-12-20T00:04:22;95200.03;;;-2.31;94.50
11053;BME280;55230;42.602;23.470;2022-12-20T00:06:48;95179.97;;;-2.44;94.93
11053;BME280;55230;42.602;23.470;2022-12-20T00:09:15;95150.00;;;-2.48;94.88
11053;BME280;55230;42.602;23.470;2022-12-20T00:11:43;95166.84;;;-2.73;93.79
11053;BME280;55230;42.602;23.470;2022-12-20T00:14:10;95288.28;;;-1.70;94.35
11053;BME280;55230;42.602;23.470;2022-12-20T00:16:37;94588.38;;;-6.29;94.53
11053;BME280;55230;42.602;23.470;2022-12-20T00:19:05;95294.22;;;-1.73;94.88
11053;BME280;55230;42.602;23.470;2022-12-20T00:21:33;95220.56;;;-2.28;95.43
11053;BME280;55230;42.602;23.470;2022-12-20T00:24:00;95227.28;;;-2.18;95.07
11053;BME280;55230;42.602;23.470;2022-12-20T00:26:30;95299.84;;;-1.75;94.93
11053;BME280;55230;42.602;23.470;2022-12-20T00:28:59;95302.69;;;-1.80;94.52
11053;BME280;55230;42.602;23.470;2022-12-20T00:31:27;95303.78;;;-1.81;94.22
11053;BME280;55230;42.602;23.470;2022-12-20T00:33:55;95210.50;;;-2.55;94.10
11053;BME280;55230;42.602;23.470;2022-12-20T00:36:25;95299.84;;;-1.75;94.18
11053;BME280;55230;42.602;23.470;2022-12-20T00:38:54;95171.81;;;-3.21;94.56
11053;BME280;55230;42.602;23.470;2022-12-20T00:41:22;95296.03;;;-1.86;95.77
11053;BME280;55230;42.602;23.470;2022-12-20T00:43:50;95047.09;;;-3.51;95.07
11053;BME280;55230;42.602;23.470;2022-12-20T00:46:19;95303.47;;;-2.00;95.46
11053;BME280;55230;42.602;23.470;2022-12-20T00:48:47;95251.06;;;-2.18;95.66
11053;BME280;55230;42.602;23.470;2022-12-20T00:51:20;95287.03;;;-1.85;95.13
11053;BME280;55230;42.602;23.470;2022-12-20T00:53:47;95287.34;;;-1.86;95.31
11053;BME280;55230;42.602;23.470;2022-12-20T00:56:14;95277.22;;;-2.05;94.47
11053;BME280;55230;42.602;23.470;2022-12-20T00:58:42;95147.38;;;-2.89;94.21
11053;BME280;55230;42.602;23.470;2022-12-20T01:01:16;95194.03;;;-2.52;93.98
11053;BME280;55230;42.602;23.470;2022-12-20T01:03:44;95249.28;;;-2.47;93.60
11053;BME280;55230;42.602;23.470;2022-12-20T01:06:11;95304.38;;;-1.96;94.61
11053;BME280;55230;42.602;23.470;2022-12-20T01:08:38;95134.78;;;-3.04;93.56
11053;BME280;55230;42.602;23.470;2022-12-20T01:11:07;95220.44;;;-2.52;93.98
11053;BME280;55230;42.602;23.470;2022-12-20T01:13:36;95242.03;;;-2.59;94.62
11053;BME280;55230;42.602;23.470;2022-12-20T01:16:04;95292.22;;;-2.09;94.49
11053;BME280;55230;42.602;23.470;2022-12-20T01:18:31;95209.72;;;-2.76;94.61
11053;BME280;55230;42.602;23.470;2022-12-20T01:21:04;95291.31;;;-2.13;95.01
11053;BME280;55230;42.602;23.470;2022-12-20T01:23:31;95100.13;;;-3.23;94.15
11053;BME280;55230;42.602;23.470;2022-12-20T01:25:59;95278.09;;;-2.13;94.25
11053;BME280;55230;42.602;23.470;2022-12-20T01:28:25;95274.78;;;-2.30;94.38
11053;BME280;55230;42.602;23.470;2022-12-20T01:30:52;95247.59;;;-2.31;94.45
11053;BME280;55230;42.602;23.470;2022-12-20T01:33:19;95247.34;;;-2.38;95.18
11053;BME280;55230;42.602;23.470;2022-12-20T01:35:54;95271.38;;;-2.31;95.08
11053;BME280;55230;42.602;23.470;2022-12-20T01:38:23;94662.00;;;-6.26;94.85
11053;BME280;55230;42.602;23.470;2022-12-20T01:40:50;95269.56;;;-2.18;94.22
11053;BME280;55230;42.602;23.470;2022-12-20T01:43:18;95261.56;;;-2.10;94.60
11053;BME280;55230;42.602;23.470;2022-12-20T01:45:46;95259.06;;;-2.06;94.87
11053;BME280;55230;42.602;23.470;2022-12-20T01:48:14;95235.63;;;-2.28;94.79
11053;BME280;55230;42.602;23.470;2022-12-20T01:50:43;95162.84;;;-2.79;94.96
11053;BME280;55230;42.602;23.470;2022-12-20T01:53:10;95269.50;;;-2.10;94.49
11053;BME280;55230;42.602;23.470;2022-12-20T01:55:39;95089.84;;;-3.16;94.35
11053;BME280;55230;42.602;23.470;2022-12-20T01:58:08;95260.66;;;-2.14;94.51
11053;BME280;55230;42.602;23.470;2022-12-20T02:00:35;95237.03;;;-2.31;94.55
11053;BME280;55230;42.602;23.470;2022-12-20T02:03:06;95232.34;;;-2.46;96.08
11053;BME280;55230;42.602;23.470;2022-12-20T02:05:34;95155.50;;;-2.94;96.03
11053;BME280;55230;42.602;23.470;2022-12-20T02:08:02;95167.03;;;-2.99;95.68
11053;BME280;55230;42.602;23.470;2022-12-20T02:10:38;95072.78;;;-3.39;95.92
11053;BME280;55230;42.602;23.470;2022-12-20T02:13:18;95150.47;;;-2.87;96.18
11053;BME280;55230;42.602;23.470;2022-12-20T02:15:52;95137.88;;;-3.02;96.52
11053;BME280;55230;42.602;23.470;2022-12-20T02:18:22;95164.00;;;-2.89;95.84
11053;BME280;55230;42.602;23.470;2022-12-20T02:21:03;95218.72;;;-2.57;95.85
11053;BME280;55230;42.602;23.470;2022-12-20T02:26:48;95222.16;;;-2.56;95.85
11053;BME280;55230;42.602;23.470;2022-12-20T02:29:32;94712.88;;;-5.93;95.23
11053;BME280;55230;42.602;23.470;2022-12-20T02:32:03;95224.53;;;-2.63;96.20
11053;BME280;55230;42.602;23.470;2022-12-20T02:34:35;95214.88;;;-2.59;95.36
11053;BME280;55230;42.602;23.470;2022-12-20T02:37:03;95000.13;;;-3.99;95.13
11053;BME280;55230;42.602;23.470;2022-12-20T02:39:31;95289.28;;;-2.57;96.46
11053;BME280;55230;42.602;23.470;2022-12-20T02:42:02;95231.56;;;-2.47;96.56
11053;BME280;55230;42.602;23.470;2022-12-20T02:44:31;94986.69;;;-4.52;95.58
11053;BME280;55230;42.602;23.470;2022-12-20T02:47:21;95261.50;;;-2.63;95.88
11053;BME280;55230;42.602;23.470;2022-12-20T02:49:50;95298.72;;;-2.56;95.71
11053;BME280;55230;42.602;23.470;2022-12-20T02:52:20;94424.53;;;-7.87;94.22
11053;BME280;55230;42.602;23.470;2022-12-20T02:54:49;95111.13;;;-3.21;95.53
11053;BME280;55230;42.602;23.470;2022-12-20T02:57:19;95212.38;;;-2.76;95.42
11053;BME280;55230;42.602;23.470;2022-12-20T02:59:54;95060.47;;;-3.56;95.39
11053;BME280;55230;42.602;23.470;2022-12-20T03:02:25;95139.50;;;-3.18;95.33
11053;BME280;55230;42.602;23.470;2022-12-20T03:04:53;94821.06;;;-5.15;95.11
11053;BME280;55230;42.602;23.470;2022-12-20T03:07:21;95216.03;;;-2.48;95.75
11053;BME280;55230;42.602;23.470;2022-12-20T03:09:57;94796.50;;;-5.19;95.53
11053;BME280;55230;42.602;23.470;2022-12-20T03:12:34;94818.22;;;-5.02;95.30
11053;BME280;55230;42.602;23.470;2022-12-20T03:15:02;94782.66;;;-5.37;95.16
11053;BME280;55230;42.602;23.470;2022-12-20T03:17:37;95146.22;;;-3.00;95.90
11053;BME280;55230;42.602;23.470;2022-12-20T03:20:05;95097.16;;;-3.42;95.80
11053;BME280;55230;42.602;23.470;2022-12-20T03:22:38;95253.31;;;-2.70;96.01
11053;BME280;55230;42.602;23.470;2022-12-20T03:25:12;94710.41;;;-5.98;95.42
11053;BME280;55230;42.602;23.470;2022-12-20T03:27:49;95292.16;;;-2.79;96.17
11053;BME280;55230;42.602;23.470;2022-12-20T03:30:19;94649.91;;;-6.64;95.72
11053;BME280;55230;42.602;23.470;2022-12-20T03:32:47;95116.91;;;-3.57;96.48
11053;BME280;55230;42.602;23.470;2022-12-20T03:35:14;95204.91;;;-3.03;96.51
11053;BME280;55230;42.602;23.470;2022-12-20T03:37:41;95035.00;;;-4.48;96.79
11053;BME280;55230;42.602;23.470;2022-12-20T03:40:09;95225.59;;;-3.14;97.77
11053;BME280;55230;42.602;23.470;2022-12-20T03:42:36;95200.31;;;-3.15;98.20
11053;BME280;55230;42.602;23.470;2022-12-20T03:45:04;95206.56;;;-3.19;98.33
11053;BME280;55230;42.602;23.470;2022-12-20T03:47:31;95189.25;;;-3.37;98.62
11053;BME280;55230;42.602;23.470;2022-12-20T03:49:59;95201.00;;;-3.26;98.97
11053;BME280;55230;42.602;23.470;2022-12-20T03:52:25;95112.56;;;-3.91;99.05
11053;BME280;55230;42.602;23.470;2022-12-20T03:54:52;95194.75;;;-3.22;98.99
11053;BME280;55230;42.602;23.470;2022-12-20T03:57:19;95181.81;;;-3.35;100.00
11053;BME280;55230;42.602;23.470;2022-12-20T03:59:46;94685.06;;;-6.57;100.00
11053;BME280;55230;42.602;23.470;2022-12-20T04:02:12;94829.28;;;-5.71;100.00
11053;BME280;55230;42.602;23.470;2022-12-20T04:04:39;95212.81;;;-3.32;100.00
11053;BME280;55230;42.602;23.470;2022-12-20T04:07:08;95183.25;;;-3.46;100.00
11053;BME280;55230;42.602;23.470;2022-12-20T04:09:34;95178.28;;;-3.48;100.00
11053;BME280;55230;42.602;23.470;2022-12-20T04:12:01;95182.16;;;-3.45;100.00
11053;BME280;55230;42.602;23.470;2022-12-20T04:14:28;95113.22;;;-3.94;100.00
11053;BME280;55230;42.602;23.470;2022-12-20T04:16:55;95178.16;;;-3.52;100.00
11053;BME280;55230;42.602;23.470;2022-12-20T04:19:22;95180.97;;;-3.57;100.00
11053;BME280;55230;42.602;23.470;2022-12-20T04:21:49;95176.31;;;-3.60;100.00
11053;BME280;55230;42.602;23.470;2022-12-20T04:24:17;95098.44;;;-4.24;100.00
11053;BME280;55230;42.602;23.470;2022-12-20T04:26:44;94566.03;;;-7.67;100.00
11053;BME280;55230;42.602;23.470;2022-12-20T04:29:11;94998.41;;;-4.79;100.00
11053;BME280;55230;42.602;23.470;2022-12-20T04:31:37;95086.41;;;-4.42;100.00
11053;BME280;55230;42.602;23.470;2022-12-20T04:34:04;95185.66;;;-3.71;100.00
11053;BME280;55230;42.602;23.470;2022-12-20T04:36:31;95136.19;;;-4.11;100.00
11053;BME280;55230;42.602;23.470;2022-12-20T04:38:58;95133.19;;;-3.93;100.00
11053;BME280;55230;42.602;23.470;2022-12-20T04:41:26;95179.25;;;-3.99;100.00
11053;BME280;55230;42.602;23.470;2022-12-20T04:43:55;95159.22;;;-3.91;100.00
11053;BME280;55230;42.602;23.470;2022-12-20T04:46:24;95106.03;;;-4.31;100.00
11053;BME280;55230;42.602;23.470;2022-12-20T04:48:51;95153.84;;;-4.12;100.00
11053;BME280;55230;42.602;23.470;2022-12-20T04:51:17;94771.44;;;-6.60;100.00
11053;BME280;55230;42.602;23.470;2022-12-20T04:53:44;95018.06;;;-4.85;100.00
11053;BME280;55230;42.602;23.470;2022-12-20T04:56:17;95213.81;;;-4.26;100.00
11053;BME280;55230;42.602;23.470;2022-12-20T04:58:47;95145.66;;;-4.19;100.00
11053;BME280;55230;42.602;23.470;2022-12-20T05:01:14;95159.16;;;-4.29;100.00
11053;BME280;55230;42.602;23.470;2022-12-20T05:03:41;95156.38;;;-4.24;100.00
11053;BME280;55230;42.602;23.470;2022-12-20T05:06:08;95150.63;;;-4.26;100.00
11053;BME280;55230;42.602;23.470;2022-12-20T05:08:35;94991.84;;;-5.44;100.00
11053;BME280;55230;42.602;23.470;2022-12-20T05:11:03;95153.44;;;-4.39;100.00
11053;BME280;55230;42.602;23.470;2022-12-20T05:13:30;95010.38;;;-5.32;100.00
11053;BME280;55230;42.602;23.470;2022-12-20T05:16:00;95150.16;;;-4.28;100.00
11053;BME280;55230;42.602;23.470;2022-12-20T05:18:27;95152.97;;;-4.33;100.00
11053;BME280;55230;42.602;23.470;2022-12-20T05:21:16;94312.09;;;-10.38;100.00
11053;BME280;55230;42.602;23.470;2022-12-20T05:24:32;95153.31;;;-4.60;100.00
11053;BME280;55230;42.602;23.470;2022-12-20T05:27:49;95148.38;;;-4.70;100.00
11053;BME280;55230;42.602;23.470;2022-12-20T05:30:31;94783.88;;;-7.00;100.00
11053;BME280;55230;42.602;23.470;2022-12-20T05:33:54;94258.00;;;-10.99;100.00
11053;BME280;55230;42.602;23.470;2022-12-20T05:36:38;94555.69;;;-8.54;100.00
11053;BME280;55230;42.602;23.470;2022-12-20T05:39:13;95041.16;;;-5.33;100.00
11053;BME280;55230;42.602;23.470;2022-12-20T05:42:06;95050.28;;;-5.47;100.00
11053;BME280;55230;42.602;23.470;2022-12-20T05:44:33;95068.38;;;-5.12;100.00
11053;BME280;55230;42.602;23.470;2022-12-20T05:47:00;95057.84;;;-5.20;100.00
11053;BME280;55230;42.602;23.470;2022-12-20T05:49:28;95163.69;;;-4.55;100.00
11053;BME280;55230;42.602;23.470;2022-12-20T05:51:55;95182.09;;;-4.55;100.00
11053;BME280;55230;42.602;23.470;2022-12-20T05:54:22;95247.38;;;-4.91;100.00
11053;BME280;55230;42.602;23.470;2022-12-20T05:56:49;94996.44;;;-5.75;100.00
11053;BME280;55230;42.602;23.470;2022-12-20T05:59:16;95078.09;;;-5.12;100.00
11053;BME280;55230;42.602;23.470;2022-12-20T06:01:43;95124.69;;;-4.79;100.00
11053;BME280;55230;42.602;23.470;2022-12-20T06:11:12;94685.53;;;-7.71;100.00
11053;BME280;55230;42.602;23.470;2022-12-20T06:14:13;95089.72;;;-5.05;100.00
11053;BME280;55230;42.602;23.470;2022-12-20T06:17:07;94291.19;;;-10.68;100.00
11053;BME280;55230;42.602;23.470;2022-12-20T06:26:23;94987.16;;;-5.99;100.00
11053;BME280;55230;42.602;23.470;2022-12-20T06:28:50;95056.78;;;-5.02;100.00
11053;BME280;55230;42.602;23.470;2022-12-20T06:31:19;95165.34;;;-4.25;100.00
11053;BME280;55230;42.602;23.470;2022-12-20T06:33:46;95163.47;;;-4.16;100.00
11053;BME280;55230;42.602;23.470;2022-12-20T06:36:12;94821.91;;;-6.72;100.00
11053;BME280;55230;42.602;23.470;2022-12-20T06:38:39;95190.41;;;-4.02;100.00
11053;BME280;55230;42.602;23.470;2022-12-20T06:41:06;95190.63;;;-3.78;100.00
11053;BME280;55230;42.602;23.470;2022-12-20T06:43:34;95166.13;;;-3.70;100.00
11053;BME280;55230;42.602;23.470;2022-12-20T06:46:01;95149.25;;;-3.77;100.00
11053;BME280;55230;42.602;23.470;2022-12-20T06:48:28;95131.47;;;-3.89;100.00
11053;BME280;55230;42.602;23.470;2022-12-20T06:50:56;95167.50;;;-3.64;100.00
11053;BME280;55230;42.602;23.470;2022-12-20T06:53:23;95160.41;;;-3.72;100.00
11053;BME280;55230;42.602;23.470;2022-12-20T06:55:50;95076.88;;;-4.17;100.00
11053;BME280;55230;42.602;23.470;2022-12-20T06:58:17;94924.06;;;-5.13;100.00
11053;BME280;55230;42.602;23.470;2022-12-20T07:00:46;95157.25;;;-3.27;100.00
11053;BME280;55230;42.602;23.470;2022-12-20T07:03:12;94693.16;;;-6.16;100.00
11053;BME280;55230;42.602;23.470;2022-12-20T07:05:39;95149.06;;;-3.34;98.86
11053;BME280;55230;42.602;23.470;2022-12-20T07:08:07;94761.53;;;-6.04;98.49
11053;BME280;55230;42.602;23.470;2022-12-20T07:10:34;95198.53;;;-3.69;99.43
11053;BME280;55230;42.602;23.470;2022-12-20T07:13:01;95124.44;;;-3.68;99.01
11053;BME280;55230;42.602;23.470;2022-12-20T07:15:28;95052.94;;;-4.04;98.86
11053;BME280;55230;42.602;23.470;2022-12-20T07:17:57;95145.69;;;-3.14;99.88
11053;BME280;55230;42.602;23.470;2022-12-20T07:20:23;94937.94;;;-4.87;97.53
11053;BME280;55230;42.602;23.470;2022-12-20T07:22:50;95087.66;;;-2.94;98.61
11053;BME280;55230;42.602;23.470;2022-12-20T07:25:17;95217.72;;;-2.23;97.64
11053;BME280;55230;42.602;23.470;2022-12-20T07:27:45;95119.84;;;-3.00;93.82
11053;BME280;55230;42.602;23.470;2022-12-20T07:30:14;95083.53;;;-2.83;95.20
11053;BME280;55230;42.602;23.470;2022-12-20T07:32:41;95238.13;;;-2.32;94.36
11053;BME280;55230;42.602;23.470;2022-12-20T07:35:10;94926.31;;;-3.70;93.92
11053;BME280;55230;42.602;23.470;2022-12-20T07:37:37;95045.66;;;-3.19;92.13
11053;BME280;55230;42.602;23.470;2022-12-20T07:40:05;95139.16;;;-2.02;93.10
11053;BME280;55230;42.602;23.470;2022-12-20T07:42:33;95136.47;;;-1.69;90.97
11053;BME280;55230;42.602;23.470;2022-12-20T07:45:00;95062.50;;;-2.14;89.79
11053;BME280;55230;42.602;23.470;2022-12-20T07:47:27;95039.59;;;-2.22;89.56
11053;BME280;55230;42.602;23.470;2022-12-20T07:49:54;95139.88;;;-1.33;89.32
11053;BME280;55230;42.602;23.470;2022-12-20T07:52:24;95117.97;;;-1.33;88.16
11053;BME280;55230;42.602;23.470;2022-12-20T07:54:56;95142.97;;;-1.31;85.67
11053;BME280;55230;42.602;23.470;2022-12-20T07:57:29;94990.97;;;-2.09;86.56
11053;BME280;55230;42.602;23.470;2022-12-20T07:59:58;94822.34;;;-3.03;85.08
11053;BME280;55230;42.602;23.470;2022-12-20T08:02:30;95049.22;;;-1.57;83.96
11053;BME280;55230;42.602;23.470;2022-12-20T08:04:58;95068.47;;;-1.45;83.73
11053;BME280;55230;42.602;23.470;2022-12-20T08:07:28;95055.81;;;-1.63;84.25
11053;BME280;55230;42.602;23.470;2022-12-20T08:09:58;94918.19;;;-3.11;84.46
11053;BME280;55230;42.602;23.470;2022-12-20T08:12:27;95120.41;;;-0.76;85.89
11053;BME280;55230;42.602;23.470;2022-12-20T08:14:56;95129.88;;;-0.63;83.43
11053;BME280;55230;42.602;23.470;2022-12-20T08:17:24;95131.88;;;-0.72;83.43
11053;BME280;55230;42.602;23.470;2022-12-20T08:19:50;95099.97;;;-1.28;82.20
11053;BME280;55230;42.602;23.470;2022-12-20T08:22:17;95128.66;;;-0.66;83.12
11053;BME280;55230;42.602;23.470;2022-12-20T08:24:46;95049.91;;;-1.21;81.06
11053;BME280;55230;42.602;23.470;2022-12-20T08:27:12;95072.16;;;-1.09;80.54
11053;BME280;55230;42.602;23.470;2022-12-20T08:29:39;95133.44;;;-0.71;79.79
11053;BME280;55230;42.602;23.470;2022-12-20T08:32:06;95135.94;;;-0.63;79.89
11053;BME280;55230;42.602;23.470;2022-12-20T08:34:33;95073.47;;;-1.03;78.48
11053;BME280;55230;42.602;23.470;2022-12-20T08:36:59;95046.56;;;-0.93;79.67
11053;BME280;55230;42.602;23.470;2022-12-20T08:39:26;95208.59;;;-0.36;77.95
11053;BME280;55230;42.602;23.470;2022-12-20T08:41:54;95136.34;;;-0.21;78.61
11053;BME280;55230;42.602;23.470;2022-12-20T08:44:21;95086.41;;;-0.19;76.03
11053;BME280;55230;42.602;23.470;2022-12-20T08:46:48;95073.94;;;-0.03;74.53
11053;BME280;55230;42.602;23.470;2022-12-20T08:49:15;95134.88;;;0.40;71.84
11053;BME280;55230;42.602;23.470;2022-12-20T08:51:41;94696.28;;;-2.58;71.06
11053;BME280;55230;42.602;23.470;2022-12-20T08:54:08;95067.25;;;-0.83;73.26
11053;BME280;55230;42.602;23.470;2022-12-20T08:56:35;94978.81;;;-0.94;72.90
11053;BME280;55230;42.602;23.470;2022-12-20T08:59:04;95062.34;;;-0.69;73.13
11053;BME280;55230;42.602;23.470;2022-12-20T09:01:31;95003.03;;;-1.60;70.63
11053;BME280;55230;42.602;23.470;2022-12-20T09:03:58;94699.78;;;-3.18;70.64
11053;BME280;55230;42.602;23.470;2022-12-20T09:06:25;95134.56;;;-0.02;73.23
11053;BME280;55230;42.602;23.470;2022-12-20T09:08:52;95162.19;;;0.41;72.73
11053;BME280;55230;42.602;23.470;2022-12-20T09:11:21;95011.16;;;-0.30;68.03
11053;BME280;55230;42.602;23.470;2022-12-20T09:13:50;95104.16;;;0.55;69.49
11053;BME280;55230;42.602;23.470;2022-12-20T09:16:58;94551.28;;;-3.58;68.50
11053;BME280;55230;42.602;23.470;2022-12-20T09:20:30;94763.13;;;-1.00;68.49
11053;BME280;55230;42.602;23.470;2022-12-20T09:23:19;95102.16;;;1.37;66.53
11053;BME280;55230;42.602;23.470;2022-12-20T09:25:56;94370.03;;;-3.65;64.45
11053;BME280;55230;42.602;23.470;2022-12-20T09:35:54;95065.38;;;1.19;61.50
11053;BME280;55230;42.602;23.470;2022-12-20T09:42:12;95164.63;;;1.46;61.78
11053;BME280;55230;42.602;23.470;2022-12-20T09:45:10;94814.41;;;-0.58;60.38
11053;BME280;55230;42.602;23.470;2022-12-20T09:47:55;95048.63;;;1.35;60.67
11053;BME280;55230;42.602;23.470;2022-12-20T09:50:36;95011.13;;;1.21;64.03
11053;BME280;55230;42.602;23.470;2022-12-20T09:53:14;95038.53;;;1.85;59.78
11053;BME280;55230;42.602;23.470;2022-12-20T09:55:49;95038.38;;;2.20;61.06
11053;BME280;55230;42.602;23.470;2022-12-20T09:58:36;94979.03;;;1.71;57.66
11053;BME280;55230;42.602;23.470;2022-12-20T10:01:15;95029.66;;;2.00;56.97
11053;BME280;55230;42.602;23.470;2022-12-20T10:03:42;95017.25;;;1.25;59.30
11053;BME280;55230;42.602;23.470;2022-12-20T10:06:18;94707.63;;;-0.62;58.85
11053;BME280;55230;42.602;23.470;2022-12-20T10:08:50;95010.03;;;1.63;61.02
11053;BME280;55230;42.602;23.470;2022-12-20T10:14:33;95011.75;;;1.75;58.49
11053;BME280;55230;42.602;23.470;2022-12-20T10:17:10;94900.25;;;1.63;57.18
11053;BME280;55230;42.602;23.470;2022-12-20T10:19:57;94999.06;;;1.87;57.37
11053;BME280;55230;42.602;23.470;2022-12-20T10:22:33;95004.97;;;1.77;59.09
11053;BME280;55230;42.602;23.470;2022-12-20T10:25:13;94927.84;;;1.32;60.87
11053;BME280;55230;42.602;23.470;2022-12-20T10:27:43;94957.81;;;1.74;57.53
11053;BME280;55230;42.602;23.470;2022-12-20T10:30:12;94969.25;;;2.01;59.30
11053;BME280;55230;42.602;23.470;2022-12-20T10:32:41;94916.31;;;1.70;59.03
11053;BME280;55230;42.602;23.470;2022-12-20T10:35:22;94952.78;;;1.92;56.41
11053;BME280;55230;42.602;23.470;2022-12-20T10:38:01;94875.72;;;1.47;56.44
11053;BME280;55230;42.602;23.470;2022-12-20T10:40:31;94943.25;;;1.91;57.64
11053;BME280;55230;42.602;23.470;2022-12-20T10:42:59;94938.16;;;2.05;57.42
11053;BME280;55230;42.602;23.470;2022-12-20T10:45:31;94841.47;;;1.19;57.64
11053;BME280;55230;42.602;23.470;2022-12-20T10:48:00;94934.78;;;2.08;55.23
11053;BME280;55230;42.602;23.470;2022-12-20T10:50:28;94951.97;;;1.88;55.09
11053;BME280;55230;42.602;23.470;2022-12-20T10:53:16;94885.25;;;1.29;56.80
11053;BME280;55230;42.602;23.470;2022-12-20T10:55:44;94910.53;;;2.13;58.50
11053;BME280;55230;42.602;23.470;2022-12-20T10:58:14;94869.63;;;1.95;56.86
11053;BME280;55230;42.602;23.470;2022-12-20T11:00:42;94918.41;;;2.06;59.48
11053;BME280;55230;42.602;23.470;2022-12-20T11:03:13;94894.88;;;1.82;52.72
11053;BME280;55230;42.602;23.470;2022-12-20T11:05:52;94906.19;;;2.27;55.10
11053;BME280;55230;42.602;23.470;2022-12-20T11:08:21;94944.72;;;2.37;53.84
11053;BME280;55230;42.602;23.470;2022-12-20T11:10:49;94909.38;;;2.40;54.67
11053;BME280;55230;42.602;23.470;2022-12-20T11:13:21;94867.56;;;1.85;54.40
11053;BME280;55230;42.602;23.470;2022-12-20T11:15:51;94853.94;;;1.90;53.86
11053;BME280;55230;42.602;23.470;2022-12-20T11:18:28;94903.72;;;2.42;54.12
11053;BME280;55230;42.602;23.470;2022-12-20T11:21:07;94785.94;;;1.89;52.68
11053;BME280;55230;42.602;23.470;2022-12-20T11:23:42;94897.25;;;2.43;52.09
11053;BME280;55230;42.602;23.470;2022-12-20T11:26:23;94933.50;;;2.51;53.80
11053;BME280;55230;42.602;23.470;2022-12-20T11:29:02;94806.00;;;1.83;54.45
11053;BME280;55230;42.602;23.470;2022-12-20T11:31:42;94825.09;;;1.92;52.77
11053;BME280;55230;42.602;23.470;2022-12-20T11:34:18;94895.25;;;2.32;53.04
11053;BME280;55230;42.602;23.470;2022-12-20T11:37:01;94876.19;;;2.30;51.33
11053;BME280;55230;42.602;23.470;2022-12-20T11:39:38;94866.75;;;2.36;50.15
11053;BME280;55230;42.602;23.470;2022-12-20T11:42:12;94858.78;;;2.07;49.82
11053;BME280;55230;42.602;23.470;2022-12-20T11:44:52;94851.28;;;2.16;50.39
11053;BME280;55230;42.602;23.470;2022-12-20T11:47:38;94870.47;;;2.28;49.79
11053;BME280;55230;42.602;23.470;2022-12-20T11:50:24;94788.91;;;1.84;50.22
11053;BME280;55230;42.602;23.470;2022-12-20T11:52:59;94847.13;;;2.18;50.60
11053;BME280;55230;42.602;23.470;2022-12-20T11:55:32;94818.69;;;1.67;51.05
11053;BME280;55230;42.602;23.470;2022-12-20T11:58:02;94848.97;;;2.44;50.04
11053;BME280;55230;42.602;23.470;2022-12-20T12:00:31;94856.09;;;2.66;48.73
11053;BME280;55230;42.602;23.470;2022-12-20T12:03:03;94845.59;;;2.47;49.02
11053;BME280;55230;42.602;23.470;2022-12-20T12:05:39;94669.69;;;0.55;50.53
11053;BME280;55230;42.602;23.470;2022-12-20T12:08:11;94856.84;;;2.33;50.02
11053;BME280;55230;42.602;23.470;2022-12-20T12:10:44;94842.97;;;2.21;50.35
11053;BME280;55230;42.602;23.470;2022-12-20T12:13:22;94759.34;;;2.18;50.87
11053;BME280;55230;42.602;23.470;2022-12-20T12:15:53;94827.19;;;2.35;49.32
11053;BME280;55230;42.602;23.470;2022-12-20T12:18:24;94844.50;;;2.81;49.15
11053;BME280;55230;42.602;23.470;2022-12-20T12:20:58;94845.44;;;2.99;49.13
11053;BME280;55230;42.602;23.470;2022-12-20T12:23:34;94783.13;;;2.71;49.21
11053;BME280;55230;42.602;23.470;2022-12-20T12:26:09;94681.53;;;1.95;47.87
11053;BME280;55230;42.602;23.470;2022-12-20T12:28:37;94857.09;;;3.21;47.80
11053;BME280;55230;42.602;23.470;2022-12-20T12:31:08;94788.78;;;2.03;48.29
11053;BME280;55230;42.602;23.470;2022-12-20T12:33:41;94746.69;;;2.45;48.46
11053;BME280;55230;42.602;23.470;2022-12-20T12:36:31;94714.72;;;2.05;48.91
11053;BME280;55230;42.602;23.470;2022-12-20T12:39:25;94702.84;;;1.99;49.70
11053;BME280;55230;42.602;23.470;2022-12-20T12:42:18;94792.44;;;2.54;49.50
11053;BME280;55230;42.602;23.470;2022-12-20T12:44:53;94572.25;;;1.38;50.43
11053;BME280;55230;42.602;23.470;2022-12-20T12:47:27;94842.06;;;3.06;51.40
11053;BME280;55230;42.602;23.470;2022-12-20T12:50:00;94843.16;;;3.01;51.36
11053;BME280;55230;42.602;23.470;2022-12-20T12:52:40;94813.06;;;2.64;51.72
11053;BME280;55230;42.602;23.470;2022-12-20T12:55:39;94836.84;;;2.80;52.58
11053;BME280;55230;42.602;23.470;2022-12-20T12:58:32;94837.56;;;2.77;53.87
11053;BME280;55230;42.602;23.470;2022-12-20T13:01:01;94841.25;;;2.65;54.23
11053;BME280;55230;42.602;23.470;2022-12-20T13:04:09;94838.84;;;2.53;55.25
11053;BME280;55230;42.602;23.470;2022-12-20T13:07:01;94692.97;;;1.40;54.83
11053;BME280;55230;42.602;23.470;2022-12-20T13:09:40;94794.41;;;1.98;53.85
11053;BME280;55230;42.602;23.470;2022-12-20T13:16:03;94829.81;;;2.02;56.95
11053;BME280;55230;42.602;23.470;2022-12-20T13:18:30;94817.22;;;1.99;57.49
11053;BME280;55230;42.602;23.470;2022-12-20T13:21:40;94812.06;;;1.83;56.88
11053;BME280;55230;42.602;23.470;2022-12-20T13:24:38;94802.78;;;1.70;57.99
11053;BME280;55230;42.602;23.470;2022-12-20T13:27:31;94733.00;;;1.25;59.33
11053;BME280;55230;42.602;23.470;2022-12-20T13:30:23;94803.09;;;1.65;58.23
11053;BME280;55230;42.602;23.470;2022-12-20T13:33:19;94589.28;;;0.06;59.38
11053;BME280;55230;42.602;23.470;2022-12-20T13:38:56;94802.41;;;1.46;59.48
11053;BME280;55230;42.602;23.470;2022-12-20T13:41:43;94672.81;;;0.61;59.60
11053;BME280;55230;42.602;23.470;2022-12-20T13:44:32;94755.22;;;1.13;60.14
11053;BME280;55230;42.602;23.470;2022-12-20T13:47:05;94738.47;;;0.86;58.92
11053;BME280;55230;42.602;23.470;2022-12-20T13:49:36;94744.25;;;0.92;59.04
11053;BME280;55230;42.602;23.470;2022-12-20T13:52:21;94789.81;;;1.16;58.85
11053;BME280;55230;42.602;23.470;2022-12-20T13:54:52;94759.63;;;1.05;59.11
11053;BME280;55230;42.602;23.470;2022-12-20T13:57:27;94783.66;;;1.12;58.82